Monday, December 18, 2017, 5:55 AM EST
Back to Local

KAGC, Pittsburgh Allegheny Cty.

Location: West Mifflin, PA, United States Lat: 40.35
Local Time: 5:55 AM EST (10:55 GMT) Lon: -79.917
Time Zone: US/Eastern Elev: 1253 ft

Show me the last for .
Show Decoded

2017-12-18 04:53 METAR KAGC 180953Z 18007KT 10SM BKN055 02/M02 A3005 RMK AO2 SLP192 T00171017 =
2017-12-18 03:53 METAR KAGC 180853Z 19006KT 10SM OVC060 02/M01 A3006 RMK AO2 SLP194 T00221011
                 56006 =
2017-12-18 02:53 METAR KAGC 180753Z 18006KT 10SM OVC070 02/M01 A3007 RMK AO2 SLP195 T00221011 =
2017-12-18 01:53 METAR KAGC 180653Z 18005KT 10SM OVC070 02/M01 A3006 RMK AO2 SLP194 T00221011 =
2017-12-18 00:53 METAR KAGC 180553Z 20006KT 10SM FEW050 OVC070 03/M01 A3008 RMK AO2 SLP200
                 T00281011 10028 20017 50001 =
2017-12-17 23:53 METAR KAGC 180453Z 19007KT 10SM BKN043 OVC070 03/M01 A3009 RMK AO2 SLP203
                 T00281011 400391011 =
2017-12-17 22:53 METAR KAGC 180353Z 20005KT 10SM OVC060 03/M01 A3009 RMK AO2 SLP203 T00281011 =
2017-12-17 21:53 METAR KAGC 180253Z 18007KT 10SM OVC055 02/M01 A3008 RMK AO2 SLP200 T00221006
                 58011 =
2017-12-17 20:53 METAR KAGC 180153Z 17008KT 9SM BKN055 OVC075 02/00 A3010 RMK AO2 SLP208
                 T00220000 =
2017-12-17 19:53 METAR KAGC 180053Z 17006KT 9SM SCT055 OVC070 02/00 A3011 RMK AO2 SLP214
                 T00170000 =
2017-12-17 18:53 METAR KAGC 172353Z 16005KT 5SM BR BKN036 BKN050 OVC055 02/01 A3011 RMK AO2
                 RAE32UPB32E40 SLP212 P0002 60009 T00170006 10039 20017 58005 =
2017-12-17 17:53 METAR KAGC 172253Z 20004KT 6SM -RA BR OVC041 02/00 A3013 RMK AO2 SLP218 P0004
                 T00220000 =
2017-12-17 16:53 METAR KAGC 172153Z 18005KT 7SM -RA OVC048 03/M01 A3013 RMK AO2 RAB08 SLP219
                 P0003 T00281006 =
2017-12-17 15:53 METAR KAGC 172053Z 18005KT 10SM OVC085 04/M02 A3013 RMK AO2 SLP216 T00391022
                 55004 =
2017-12-17 14:53 METAR KAGC 171953Z 17005KT 10SM OVC100 04/M03 A3010 RMK AO2 SLP206 T00391028 =
2017-12-17 13:53 METAR KAGC 171853Z 14004KT 10SM FEW120 04/M03 A3010 RMK AO2 SLP208 T00391028 =
2017-12-17 12:53 METAR KAGC 171753Z 19006KT 10SM CLR 04/M03 A3014 RMK AO2 SLP220 T00391028 10039
                 21011 58020 =
2017-12-17 11:53 METAR KAGC 171653Z 18005KT 10SM CLR 03/M03 A3016 RMK AO2 SLP230 T00281028 =
2017-12-17 10:53 METAR KAGC 171553Z 17005KT 10SM CLR 02/M03 A3020 RMK AO2 SLP241 T00221033 =
2017-12-17 09:53 METAR KAGC 171453Z 19006KT 10SM CLR 01/M03 A3020 RMK AO2 SLP243 T00111033 53010
                 =
2017-12-17 08:53 METAR KAGC 171353Z 17005KT 10SM CLR 01/M04 A3018 RMK AO2 SLP236 T00061039 =
2017-12-17 07:53 METAR KAGC 171253Z 16005KT 8SM CLR M01/M04 A3018 RMK AO2 SLP236 T10111044 =
2017-12-17 06:53 METAR KAGC 171153Z 19003KT 10SM CLR 01/M04 A3017 RMK AO2 SLP232 70002 T00061044
                 10011 20000 53005 =

Support USWX by starting your Amazon purchase here.